Time;durP1;ratioP1;P1;durP2;ratioP2;P2;SDS_P1;SDS_P2;PMS_P1;PMS_P2;Temp;Humidity;BMP_temperature;BMP_pressure;BME280_temperature;BME280_humidity;BME280_pressure;Samples;Min_cycle;Max_cycle;Signal;HPM_P1;HPM_P2
2023/05/31 00:00:24;;;;;;;10.23;5.00;;;;;;;19.32;59.62;101144.59;5013841;28;20396;-80
2023/05/31 00:02:50;;;;;;;8.57;5.13;;;;;;;19.39;59.34;101139.97;5013580;28;20968;-79
2023/05/31 00:05:15;;;;;;;12.15;5.80;;;;;;;19.34;59.57;101137.13;5011839;28;20745;-79
2023/05/31 00:07:41;;;;;;;10.53;5.43;;;;;;;19.38;59.46;101145.56;5011668;28;20479;-79
2023/05/31 00:10:07;;;;;;;10.07;5.22;;;;;;;19.41;59.36;101153.19;5010107;28;20391;-79
2023/05/31 00:12:32;;;;;;;10.25;5.50;;;;;;;19.44;59.21;101150.88;5014184;28;20462;-79
2023/05/31 00:14:58;;;;;;;10.70;5.13;;;;;;;19.46;59.21;101153.34;5016999;28;20522;-79
2023/05/31 00:17:23;;;;;;;10.47;5.27;;;;;;;19.40;59.26;101154.22;5010690;28;20396;-78
2023/05/31 00:19:49;;;;;;;10.90;5.30;;;;;;;19.27;59.92;101155.97;5004451;28;20499;-79
2023/05/31 00:22:16;;;;;;;10.23;5.27;;;;;;;19.28;60.08;101154.09;5001019;28;20403;-78
2023/05/31 00:24:45;;;;;;;8.30;4.82;;;;;;;19.33;59.91;101150.78;5004457;28;20720;-80
2023/05/31 00:27:10;;;;;;;7.63;5.13;;;;;;;19.25;60.33;101166.13;5003923;28;20403;-79
2023/05/31 00:29:36;;;;;;;10.70;5.35;;;;;;;19.06;60.90;101159.00;5004961;28;20387;-79
2023/05/31 00:32:01;;;;;;;8.83;4.97;;;;;;;19.04;61.08;101156.53;5016181;28;20384;-79
2023/05/31 00:34:27;;;;;;;10.30;5.20;;;;;;;19.07;61.13;101153.41;5014260;28;20411;-79
2023/05/31 00:36:52;;;;;;;9.73;4.97;;;;;;;18.97;61.37;101150.34;5014796;28;20848;-79
2023/05/31 00:39:18;;;;;;;8.93;5.20;;;;;;;18.98;61.29;101145.78;5016367;28;20844;-79
2023/05/31 00:41:43;;;;;;;11.98;5.53;;;;;;;19.08;61.03;101151.53;5017356;28;20464;-79
2023/05/31 00:44:09;;;;;;;8.80;4.90;;;;;;;19.14;60.43;101153.38;5017168;28;20929;-80
2023/05/31 00:46:38;;;;;;;9.40;5.00;;;;;;;19.12;60.26;101160.00;5016079;28;20882;-80
2023/05/31 00:49:04;;;;;;;10.80;4.85;;;;;;;19.16;60.14;101159.34;5016157;28;20462;-79
2023/05/31 00:51:31;;;;;;;12.10;5.47;;;;;;;19.11;60.32;101153.81;5015930;28;20792;-79
2023/05/31 00:53:58;;;;;;;12.73;5.50;;;;;;;19.22;61.31;101147.72;5017643;28;20472;-81
2023/05/31 00:56:24;;;;;;;7.75;4.50;;;;;;;19.06;61.31;101159.81;5016322;28;20380;-81
2023/05/31 00:58:52;;;;;;;9.70;5.20;;;;;;;18.94;62.40;101164.22;5015632;28;20444;-82
2023/05/31 01:01:19;;;;;;;10.85;5.03;;;;;;;19.14;61.68;101165.97;5016415;28;20376;-79
2023/05/31 01:03:45;;;;;;;10.07;5.32;;;;;;;18.99;61.08;101175.13;5015728;28;20411;-79
2023/05/31 01:06:11;;;;;;;10.13;5.18;;;;;;;18.94;61.08;101176.81;5015336;28;20450;-79
2023/05/31 01:08:37;;;;;;;12.73;5.83;;;;;;;18.93;60.65;101178.69;5016125;28;20380;-79
2023/05/31 01:11:16;;;;;;;10.48;5.45;;;;;;;18.94;60.56;101172.28;5016016;28;20457;-80
2023/05/31 01:13:58;;;;;;;10.13;5.00;;;;;;;18.85;60.39;101174.41;5016362;28;20414;-79
2023/05/31 01:16:35;;;;;;;9.98;5.25;;;;;;;18.79;60.52;101185.94;5019038;28;20461;-80
2023/05/31 01:19:07;;;;;;;10.60;5.13;;;;;;;18.70;60.59;101185.34;5022005;28;20383;-80
2023/05/31 01:21:51;;;;;;;9.60;5.00;;;;;;;18.69;60.51;101180.19;5016674;28;20380;-77
2023/05/31 01:24:31;;;;;;;11.57;5.78;;;;;;;18.64;60.71;101182.72;5016463;28;20384;-80
2023/05/31 01:27:00;;;;;;;11.00;5.18;;;;;;;18.72;60.55;101179.78;5016687;28;20470;-80
2023/05/31 01:29:27;;;;;;;9.88;5.00;;;;;;;18.72;60.37;101177.09;5015598;28;20380;-80
2023/05/31 01:31:55;;;;;;;9.50;5.20;;;;;;;18.64;60.58;101180.03;5015913;28;20392;-79
2023/05/31 01:34:20;;;;;;;10.25;5.60;;;;;;;18.62;60.48;101176.72;5015160;28;20403;-79
2023/05/31 01:36:45;;;;;;;9.63;5.57;;;;;;;18.68;60.24;101187.44;5025487;28;20387;-79
2023/05/31 01:39:11;;;;;;;12.20;5.30;;;;;;;18.81;59.94;101193.78;5016815;28;20372;-80
2023/05/31 01:41:42;;;;;;;10.57;5.23;;;;;;;18.88;59.64;101186.56;5016070;28;20399;-80
2023/05/31 01:44:09;;;;;;;10.13;5.60;;;;;;;18.93;59.47;101200.19;5015309;28;20408;-78
2023/05/31 01:46:35;;;;;;;10.73;5.40;;;;;;;18.90;59.40;101188.00;4934144;28;2336828;-77
2023/05/31 01:49:01;;;;;;;9.88;5.40;;;;;;;18.95;59.33;101191.91;5015794;28;20914;-78
2023/05/31 01:51:30;;;;;;;10.07;5.43;;;;;;;18.97;59.11;101181.78;5014708;28;20392;-79
2023/05/31 01:53:56;;;;;;;8.95;5.20;;;;;;;19.00;58.91;101181.34;5015710;28;20455;-77
2023/05/31 01:56:25;;;;;;;10.68;5.80;;;;;;;19.01;58.89;101186.50;5015147;28;20856;-79
2023/05/31 01:58:50;;;;;;;10.00;5.60;;;;;;;19.03;58.79;101191.66;5015282;28;20943;-79
2023/05/31 02:01:17;;;;;;;10.57;5.25;;;;;;;19.00;58.79;101190.25;5015446;28;20423;-79
2023/05/31 02:03:43;;;;;;;10.05;5.07;;;;;;;19.07;58.36;101184.84;5014595;28;20871;-79
2023/05/31 02:06:12;;;;;;;11.05;5.45;;;;;;;19.09;58.17;101183.56;5014739;28;20397;-78
2023/05/31 02:08:39;;;;;;;11.52;5.28;;;;;;;19.02;58.30;101190.03;5015820;28;20388;-79
2023/05/31 02:11:04;;;;;;;9.63;5.07;;;;;;;19.01;58.65;101189.19;5013960;28;20385;-79
2023/05/31 02:13:31;;;;;;;9.48;5.18;;;;;;;19.06;58.20;101199.31;5013716;28;20747;-79
2023/05/31 02:15:57;;;;;;;12.18;5.43;;;;;;;19.04;58.13;101193.31;5014530;28;20379;-78
2023/05/31 02:18:26;;;;;;;11.27;5.77;;;;;;;18.96;58.66;101206.97;5014302;28;20403;-78
2023/05/31 02:20:52;;;;;;;9.93;5.28;;;;;;;18.84;59.11;101202.28;5014528;28;20852;-78
2023/05/31 02:23:17;;;;;;;11.68;5.30;;;;;;;18.71;59.74;101195.06;5013551;28;20381;-78
2023/05/31 02:25:50;;;;;;;11.60;5.23;;;;;;;18.69;59.77;101188.25;5013732;28;20395;-78
2023/05/31 02:28:16;;;;;;;13.30;5.72;;;;;;;18.87;59.27;101209.09;5014361;28;20407;-79
2023/05/31 02:30:56;;;;;;;11.90;5.78;;;;;;;18.91;58.88;101205.78;5014527;28;20452;-80
2023/05/31 02:33:22;;;;;;;14.27;5.97;;;;;;;18.86;58.99;101210.13;5012594;28;20454;-78
2023/05/31 02:35:48;;;;;;;12.02;5.50;;;;;;;18.83;59.35;101218.59;5012371;28;20424;-79
2023/05/31 02:38:13;;;;;;;8.90;5.30;;;;;;;18.75;59.53;101211.59;5013429;28;20388;-78
2023/05/31 02:40:39;;;;;;;13.63;5.93;;;;;;;18.73;59.59;101219.84;5013041;28;20395;-78
2023/05/31 02:43:04;;;;;;;13.52;5.70;;;;;;;18.68;59.94;101218.84;5013454;28;20380;-78
2023/05/31 02:45:30;;;;;;;11.57;5.30;;;;;;;18.62;59.87;101225.88;5011742;28;20407;-80
2023/05/31 02:47:56;;;;;;;11.15;5.93;;;;;;;18.53;60.17;101227.16;5013079;28;20404;-78
2023/05/31 02:50:21;;;;;;;12.30;5.35;;;;;;;18.46;60.50;101229.84;5013392;28;20384;-79
2023/05/31 02:52:47;;;;;;;12.60;5.47;;;;;;;18.38;60.70;101218.50;5012348;28;20404;-78
2023/05/31 02:55:12;;;;;;;15.27;5.70;;;;;;;18.52;60.07;101228.19;5012617;28;20410;-79
2023/05/31 02:57:38;;;;;;;26.30;5.90;;;;;;;18.49;60.07;101228.59;5013069;28;20439;-78
2023/05/31 03:00:10;;;;;;;12.83;5.70;;;;;;;18.53;59.85;101229.84;5013959;28;20384;-78
2023/05/31 03:02:36;;;;;;;10.93;5.70;;;;;;;18.50;60.14;101239.13;4997225;28;20391;-78
2023/05/31 03:05:02;;;;;;;12.27;5.45;;;;;;;18.17;60.97;101241.88;5009959;28;20809;-78
2023/05/31 03:07:27;;;;;;;11.40;5.20;;;;;;;18.05;61.55;101238.97;5010740;28;20380;-78
2023/05/31 03:09:53;;;;;;;13.57;5.45;;;;;;;17.76;61.98;101232.94;5011306;28;20388;-78
2023/05/31 03:12:18;;;;;;;13.23;5.77;;;;;;;17.68;62.26;101235.84;5014991;28;20430;-80
2023/05/31 03:14:44;;;;;;;11.48;5.38;;;;;;;17.89;61.59;101244.75;5020715;28;20408;-80
2023/05/31 03:17:09;;;;;;;9.33;5.20;;;;;;;17.94;61.37;101250.31;5013057;28;20396;-79
2023/05/31 03:19:35;;;;;;;11.93;5.63;;;;;;;17.98;61.21;101253.41;5012474;28;20396;-78
2023/05/31 03:22:00;;;;;;;13.23;5.47;;;;;;;18.01;61.02;101245.78;5013127;28;20376;-79
2023/05/31 03:24:26;;;;;;;17.07;5.47;;;;;;;18.06;61.03;101253.19;5012343;28;20381;-78
2023/05/31 03:26:52;;;;;;;14.73;5.32;;;;;;;18.09;60.90;101258.16;4983915;28;20415;-78
2023/05/31 03:29:17;;;;;;;9.35;5.22;;;;;;;18.14;60.95;101261.88;5026877;28;20827;-78
2023/05/31 03:31:42;;;;;;;11.97;5.40;;;;;;;18.18;60.78;101258.78;5012077;28;20380;-79
2023/05/31 03:34:08;;;;;;;9.47;5.20;;;;;;;18.26;60.50;101264.78;5016510;28;20479;-79
2023/05/31 03:36:33;;;;;;;11.63;4.77;;;;;;;18.33;60.57;101267.47;5013314;28;20865;-78
2023/05/31 03:38:59;;;;;;;14.57;5.40;;;;;;;18.53;60.11;101270.94;5012177;28;20377;-78
2023/05/31 03:41:25;;;;;;;9.90;4.95;;;;;;;18.61;59.99;101267.19;5011923;28;20492;-78
2023/05/31 03:43:51;;;;;;;12.02;5.15;;;;;;;18.76;59.65;101271.50;5011148;28;20480;-78
2023/05/31 03:46:17;;;;;;;12.20;4.97;;;;;;;18.79;59.45;101265.72;5010074;28;20892;-78
2023/05/31 03:48:42;;;;;;;14.00;5.30;;;;;;;18.91;59.33;101272.94;5011613;28;20476;-77
2023/05/31 03:51:08;;;;;;;11.77;5.10;;;;;;;19.00;58.97;101268.16;5027563;28;20388;-80
2023/05/31 03:53:33;;;;;;;11.45;5.13;;;;;;;19.22;58.70;101284.81;5008237;28;20874;-79
2023/05/31 03:55:59;;;;;;;10.70;4.87;;;;;;;19.34;58.55;101274.22;4997319;28;20970;-78
2023/05/31 03:58:24;;;;;;;8.80;4.95;;;;;;;19.42;58.20;101259.69;4997150;28;20900;-78
2023/05/31 04:00:51;;;;;;;6.60;4.70;;;;;;;19.46;58.07;101277.03;5009970;28;20419;-78
2023/05/31 04:03:16;;;;;;;11.15;5.13;;;;;;;19.42;58.03;101276.63;5011358;28;20384;-78
2023/05/31 04:05:42;;;;;;;11.57;4.90;;;;;;;19.38;58.06;101263.84;5009499;28;20396;-78
2023/05/31 04:08:07;;;;;;;9.73;4.97;;;;;;;19.51;57.92;101273.72;5022136;28;20388;-79
2023/05/31 04:10:33;;;;;;;11.43;4.80;;;;;;;19.52;57.64;101267.28;5010763;28;20398;-79
2023/05/31 04:12:59;;;;;;;12.60;5.80;;;;;;;19.59;57.67;101268.06;5010237;28;20880;-78
2023/05/31 04:15:24;;;;;;;12.77;5.15;;;;;;;19.61;57.38;101274.06;5010698;28;20872;-79
2023/05/31 04:17:50;;;;;;;10.35;5.28;;;;;;;19.57;57.70;101271.00;5011799;28;20407;-80
2023/05/31 04:20:18;;;;;;;11.37;4.90;;;;;;;20.08;59.87;101292.59;5011455;28;20402;-80
2023/05/31 04:22:44;;;;;;;12.20;5.22;;;;;;;20.49;58.80;101289.34;5008732;28;20396;-80
2023/05/31 04:25:12;;;;;;;11.52;4.93;;;;;;;20.31;56.87;101283.91;5010751;28;20462;-80
2023/05/31 04:27:40;;;;;;;13.27;5.05;;;;;;;20.16;57.05;101281.56;5011159;28;20841;-80
2023/05/31 04:30:06;;;;;;;13.35;4.88;;;;;;;20.36;57.21;101284.91;5012495;28;20396;-80
2023/05/31 04:32:36;;;;;;;9.68;4.65;;;;;;;20.42;56.04;101286.72;5011623;28;20853;-80
2023/05/31 04:35:06;;;;;;;11.70;5.10;;;;;;;20.51;56.49;101286.41;5010677;28;20801;-80
2023/05/31 04:37:32;;;;;;;13.32;5.60;;;;;;;20.56;55.73;101282.03;5011967;28;20487;-80
2023/05/31 04:39:59;;;;;;;20.85;5.15;;;;;;;20.51;55.79;101287.25;5012145;28;20836;-81
2023/05/31 04:42:28;;;;;;;12.50;4.93;;;;;;;20.59;55.47;101299.63;5012424;28;20454;-82
2023/05/31 04:44:57;;;;;;;10.80;4.75;;;;;;;20.73;55.18;101300.34;5013151;28;20392;-81
2023/05/31 04:47:28;;;;;;;10.75;4.95;;;;;;;20.72;55.12;101304.88;5012379;28;20400;-82
2023/05/31 04:49:56;;;;;;;14.77;5.30;;;;;;;21.01;55.44;101305.19;5014160;28;20392;-80
2023/05/31 04:52:26;;;;;;;11.43;5.45;;;;;;;21.09;54.40;101314.88;5027416;28;20388;-80
2023/05/31 04:54:52;;;;;;;12.30;5.93;;;;;;;21.03;54.45;101304.97;5010258;28;20404;-82
2023/05/31 04:57:18;;;;;;;11.57;5.13;;;;;;;21.09;54.91;101304.91;5011702;28;20494;-82
2023/05/31 04:59:43;;;;;;;12.57;5.53;;;;;;;21.27;54.77;101308.66;5030128;28;20467;-83
2023/05/31 05:02:08;;;;;;;15.63;6.10;;;;;;;21.52;54.20;101306.69;5012698;28;20715;-82
2023/05/31 05:04:34;;;;;;;13.68;6.57;;;;;;;21.61;53.98;101306.34;5013239;28;20384;-82
2023/05/31 05:07:00;;;;;;;11.77;5.93;;;;;;;21.74;54.13;101304.28;5030353;28;21584;-81
2023/05/31 05:09:26;;;;;;;14.80;5.78;;;;;;;21.91;53.76;101299.06;5021576;28;20395;-82
2023/05/31 05:11:53;;;;;;;10.73;5.35;;;;;;;21.81;53.54;101312.28;5023703;28;20399;-82
2023/05/31 05:14:18;;;;;;;11.90;5.35;;;;;;;22.14;53.41;101305.56;5016702;28;20827;-81
2023/05/31 05:16:44;;;;;;;14.10;6.00;;;;;;;22.28;52.70;101307.00;5015173;28;20752;-82
2023/05/31 05:19:09;;;;;;;13.77;5.60;;;;;;;22.32;52.86;101313.56;5013774;28;20400;-81
2023/05/31 05:21:35;;;;;;;11.80;5.57;;;;;;;22.58;51.96;101316.91;5014302;28;20399;-81
2023/05/31 05:24:01;;;;;;;9.87;5.50;;;;;;;22.67;52.09;101320.03;5030977;28;20455;-81
2023/05/31 05:26:26;;;;;;;9.88;6.38;;;;;;;22.90;51.29;101316.50;5015482;28;20406;-82
2023/05/31 05:28:53;;;;;;;13.20;5.43;;;;;;;22.72;51.01;101314.75;5026390;28;20415;-83
2023/05/31 05:31:19;;;;;;;12.50;5.70;;;;;;;22.79;51.67;101323.56;5036767;28;20875;-82
2023/05/31 05:33:44;;;;;;;8.80;5.20;;;;;;;22.89;51.32;101321.09;5015156;28;20426;-81
2023/05/31 05:36:09;;;;;;;9.93;5.43;;;;;;;22.77;51.45;101325.69;5016048;28;20396;-81
2023/05/31 05:38:35;;;;;;;13.38;5.57;;;;;;;22.73;51.93;101316.41;5014733;28;20407;-81
2023/05/31 05:41:00;;;;;;;12.03;5.40;;;;;;;22.94;51.52;101328.50;5018578;28;20400;-80
2023/05/31 05:43:28;;;;;;;10.07;5.17;;;;;;;22.94;51.60;101325.78;5032702;28;20466;-83
2023/05/31 05:45:54;;;;;;;10.30;5.80;;;;;;;23.24;51.06;101327.50;5034483;28;20748;-81
2023/05/31 05:48:19;;;;;;;6.77;5.30;;;;;;;23.23;50.91;101328.59;5031959;28;20475;-81
2023/05/31 05:50:45;;;;;;;9.75;5.55;;;;;;;23.46;50.62;101323.09;5031251;28;20413;-82
2023/05/31 05:53:11;;;;;;;12.17;6.07;;;;;;;23.71;50.11;101326.50;5031895;28;20396;-82
2023/05/31 05:55:36;;;;;;;10.55;5.85;;;;;;;23.62;49.94;101326.06;5015412;28;20380;-81
2023/05/31 05:58:02;;;;;;;10.80;5.87;;;;;;;23.52;50.21;101326.72;5015747;28;20376;-82
2023/05/31 06:00:28;;;;;;;12.70;5.93;;;;;;;23.47;49.99;101335.53;5015814;28;20387;-79
2023/05/31 06:02:53;;;;;;;10.65;5.95;;;;;;;23.57;49.75;101332.22;5030585;28;20494;-81
2023/05/31 06:05:25;;;;;;;11.30;6.05;;;;;;;23.73;49.66;101333.31;5017858;28;20380;-82
2023/05/31 06:07:51;;;;;;;8.90;5.50;;;;;;;23.97;49.38;101323.22;5024655;28;20742;-82
2023/05/31 06:10:17;;;;;;;8.48;5.25;;;;;;;24.03;49.09;101335.78;5020751;28;20512;-80
2023/05/31 06:12:42;;;;;;;9.60;5.70;;;;;;;24.16;48.87;101337.34;5013326;28;20384;-82
2023/05/31 06:15:08;;;;;;;10.50;5.70;;;;;;;24.51;48.56;101325.44;5015461;28;20845;-81
2023/05/31 06:17:34;;;;;;;8.85;5.30;;;;;;;24.77;47.91;101325.81;5014227;28;20387;-81
2023/05/31 06:20:00;;;;;;;9.00;5.03;;;;;;;24.82;47.42;101334.03;5015867;28;20376;-80
2023/05/31 06:22:26;;;;;;;8.00;4.87;;;;;;;24.90;47.46;101338.19;5018363;28;20391;-81
2023/05/31 06:24:53;;;;;;;8.75;5.10;;;;;;;24.98;47.26;101333.16;5016048;28;20376;-81
2023/05/31 06:27:19;;;;;;;8.88;5.10;;;;;;;25.09;46.65;101325.97;5016531;28;20399;-81
2023/05/31 06:29:44;;;;;;;8.63;5.00;;;;;;;25.37;46.28;101343.16;5016911;28;20384;-82
2023/05/31 06:32:10;;;;;;;6.03;5.00;;;;;;;25.28;46.10;101329.22;5016185;28;20388;-83
2023/05/31 06:34:35;;;;;;;6.88;5.40;;;;;;;25.24;46.15;101328.06;5013513;28;20400;-81
2023/05/31 06:37:01;;;;;;;6.03;4.90;;;;;;;25.41;45.72;101328.03;5013426;28;20399;-80
2023/05/31 06:39:27;;;;;;;8.82;5.30;;;;;;;25.48;45.30;101333.22;5016010;28;20710;-81
2023/05/31 06:41:52;;;;;;;6.63;5.20;;;;;;;25.64;45.04;101331.50;5014540;28;20433;-79
2023/05/31 06:44:18;;;;;;;7.53;5.40;;;;;;;25.51;45.55;101324.59;5017829;28;20384;-79
2023/05/31 06:46:43;;;;;;;9.30;5.28;;;;;;;25.69;45.28;101339.69;5013355;28;20412;-80
2023/05/31 06:49:09;;;;;;;8.03;5.50;;;;;;;25.75;45.11;101330.53;5013396;28;20384;-79
2023/05/31 06:51:35;;;;;;;9.10;5.70;;;;;;;25.87;44.61;101327.66;5011743;28;20445;-79
2023/05/31 06:54:00;;;;;;;8.23;5.30;;;;;;;25.75;44.92;101331.34;5014480;28;20435;-80
2023/05/31 06:56:28;;;;;;;8.88;4.97;;;;;;;25.92;44.61;101333.13;5012746;28;20420;-81
2023/05/31 06:58:53;;;;;;;6.78;5.20;;;;;;;25.86;45.03;101335.00;5015063;28;20384;-80
2023/05/31 07:01:19;;;;;;;8.73;5.10;;;;;;;25.99;45.17;101335.69;5014385;28;20400;-79
2023/05/31 07:03:44;;;;;;;6.93;4.83;;;;;;;26.15;44.73;101334.72;5014784;28;20427;-80
2023/05/31 07:06:10;;;;;;;9.20;5.77;;;;;;;26.42;44.16;101328.41;5021866;28;20384;-81
2023/05/31 07:08:35;;;;;;;9.35;6.00;;;;;;;26.44;44.42;101328.97;5010328;28;20399;-80
2023/05/31 07:11:01;;;;;;;9.73;5.63;;;;;;;26.59;43.94;101329.03;5012593;28;20578;-79
2023/05/31 07:13:26;;;;;;;8.73;5.77;;;;;;;26.70;43.36;101332.69;5013595;28;20442;-80
2023/05/31 07:15:52;;;;;;;10.03;5.70;;;;;;;26.58;43.57;101326.59;5013242;28;20380;-79
2023/05/31 07:18:17;;;;;;;11.38;6.30;;;;;;;26.65;43.77;101335.34;4999851;28;20629;-80
2023/05/31 07:20:43;;;;;;;9.47;5.93;;;;;;;26.74;43.78;101332.97;4998469;28;20405;-80
2023/05/31 07:23:09;;;;;;;10.40;5.80;;;;;;;26.84;43.64;101331.13;5006660;28;20396;-82
2023/05/31 07:25:34;;;;;;;9.00;5.80;;;;;;;26.78;43.85;101328.66;5004401;28;20538;-81
2023/05/31 07:28:00;;;;;;;9.03;6.17;;;;;;;26.77;44.51;101338.69;4997181;28;20431;-80
2023/05/31 07:30:25;;;;;;;12.73;5.93;;;;;;;26.90;43.86;101334.69;5003051;28;20396;-80
2023/05/31 07:32:51;;;;;;;9.02;5.45;;;;;;;27.04;43.57;101332.31;5012188;28;20396;-80
2023/05/31 07:35:16;;;;;;;8.33;5.93;;;;;;;27.27;43.17;101329.16;5011722;28;21064;-79
2023/05/31 07:37:42;;;;;;;8.80;5.60;;;;;;;27.36;42.90;101326.75;5013391;28;20388;-80
2023/05/31 07:40:08;;;;;;;11.20;5.37;;;;;;;27.44;43.07;101328.94;5014206;28;20376;-80
2023/05/31 07:42:33;;;;;;;8.20;5.13;;;;;;;27.40;42.49;101325.09;5028627;28;20383;-80
2023/05/31 07:44:59;;;;;;;8.27;4.80;;;;;;;27.42;42.63;101319.41;5013955;28;20380;-80
2023/05/31 07:47:25;;;;;;;9.10;5.50;;;;;;;27.46;42.91;101324.06;5029716;28;20424;-80
2023/05/31 07:49:51;;;;;;;6.60;4.87;;;;;;;27.62;42.33;101324.06;5030678;28;20377;-81
2023/05/31 07:52:21;;;;;;;8.98;4.80;;;;;;;27.72;42.62;101312.38;5016477;28;20376;-81
2023/05/31 07:54:50;;;;;;;7.28;4.97;;;;;;;27.84;42.25;101321.94;5021049;28;20403;-79
2023/05/31 07:57:16;;;;;;;6.57;4.63;;;;;;;27.99;41.76;101309.44;5020008;28;20384;-80
2023/05/31 07:59:42;;;;;;;9.65;5.43;;;;;;;27.87;41.75;101309.66;5021578;28;20458;-79
2023/05/31 08:02:08;;;;;;;7.60;4.90;;;;;;;27.90;42.33;101309.16;5021378;28;20761;-82
2023/05/31 08:04:35;;;;;;;7.32;4.50;;;;;;;27.98;41.77;101295.00;5021721;28;20410;-81
2023/05/31 08:07:01;;;;;;;8.45;4.80;;;;;;;28.12;41.68;101300.69;5033482;28;20396;-77
2023/05/31 08:09:26;;;;;;;8.95;5.15;;;;;;;28.06;41.71;101301.00;5016728;28;20457;-78
2023/05/31 08:11:52;;;;;;;8.50;4.67;;;;;;;28.12;41.95;101302.59;5031936;28;20388;-78
2023/05/31 08:14:18;;;;;;;9.60;4.97;;;;;;;28.20;41.18;101308.34;5015009;28;20399;-78
2023/05/31 08:16:44;;;;;;;10.30;5.60;;;;;;;28.22;41.24;101310.78;5015500;28;20443;-78
2023/05/31 08:19:10;;;;;;;10.13;5.20;;;;;;;28.48;41.04;101299.81;5015565;28;20399;-79
2023/05/31 08:21:37;;;;;;;9.50;5.00;;;;;;;28.49;41.25;101298.75;5016015;28;20392;-78
2023/05/31 08:24:08;;;;;;;8.50;5.32;;;;;;;28.44;41.23;101296.03;5015100;28;20380;-78
2023/05/31 08:26:33;;;;;;;9.57;5.73;;;;;;;28.47;41.31;101292.72;5014871;28;20372;-78
2023/05/31 08:28:59;;;;;;;8.82;5.35;;;;;;;28.50;41.27;101293.00;5012301;28;20780;-78
2023/05/31 08:31:24;;;;;;;6.87;4.73;;;;;;;28.55;41.41;101297.66;5011879;28;20383;-78
2023/05/31 08:33:59;;;;;;;8.73;4.80;;;;;;;28.50;41.06;101289.47;5017029;28;20410;-82
2023/05/31 08:36:26;;;;;;;7.25;4.65;;;;;;;28.73;40.79;101293.50;5018444;28;20387;-78
2023/05/31 08:38:52;;;;;;;8.02;4.80;;;;;;;28.74;40.61;101282.31;5016643;28;20380;-79
2023/05/31 08:41:18;;;;;;;7.13;4.60;;;;;;;28.77;40.72;101291.84;5016871;28;20868;-77
2023/05/31 08:43:46;;;;;;;5.90;4.28;;;;;;;28.64;40.91;101282.34;5016862;28;20951;-77
2023/05/31 08:46:14;;;;;;;6.03;4.30;;;;;;;28.64;40.72;101287.81;5017753;28;20416;-80
2023/05/31 08:49:05;;;;;;;7.85;4.40;;;;;;;28.74;40.95;101285.06;5017852;28;20392;-78
2023/05/31 08:51:36;;;;;;;6.90;4.30;;;;;;;28.82;40.26;101285.56;5017376;28;20387;-78
2023/05/31 08:54:02;;;;;;;5.68;4.50;;;;;;;28.73;40.33;101283.41;5016331;28;20466;-77
2023/05/31 08:56:28;;;;;;;4.65;4.13;;;;;;;28.72;40.33;101284.53;5016308;28;20387;-76
2023/05/31 08:58:55;;;;;;;6.10;4.40;;;;;;;28.66;40.48;101282.09;5016815;28;20372;-77
2023/05/31 09:01:22;;;;;;;7.05;4.50;;;;;;;28.70;40.50;101280.41;5021987;28;20399;-78
2023/05/31 09:03:49;;;;;;;6.85;4.15;;;;;;;28.78;40.02;101282.59;5017055;28;20912;-78
2023/05/31 09:06:14;;;;;;;7.13;4.15;;;;;;;28.67;40.08;101270.91;5016654;28;20924;-78
2023/05/31 09:08:41;;;;;;;5.13;3.60;;;;;;;28.65;39.61;101274.97;5015160;28;20396;-78
2023/05/31 09:11:07;;;;;;;4.68;3.45;;;;;;;28.79;39.02;101273.28;5017046;28;20388;-78
2023/05/31 09:13:33;;;;;;;7.65;3.42;;;;;;;28.87;39.14;101267.25;5016177;28;20500;-77
2023/05/31 09:16:00;;;;;;;6.13;3.85;;;;;;;28.99;38.80;101266.91;5014675;28;20412;-77
2023/05/31 09:18:30;;;;;;;7.28;4.50;;;;;;;29.06;38.64;101272.88;5017608;28;20384;-78
2023/05/31 09:20:56;;;;;;;6.38;3.75;;;;;;;29.06;39.11;101264.69;5018658;28;20710;-78
2023/05/31 09:23:21;;;;;;;7.30;4.50;;;;;;;29.18;38.55;101269.88;5014160;28;20376;-77
2023/05/31 09:25:50;;;;;;;7.85;4.00;;;;;;;29.29;38.80;101268.69;5015361;28;20380;-76
2023/05/31 09:28:18;;;;;;;5.85;4.20;;;;;;;29.48;38.83;101263.41;5015296;28;20534;-76
2023/05/31 09:30:44;;;;;;;6.45;3.65;;;;;;;29.54;38.68;101261.44;5014779;28;20899;-78
2023/05/31 09:33:10;;;;;;;5.78;3.90;;;;;;;29.58;38.51;101267.16;5015390;28;20404;-77
2023/05/31 09:35:36;;;;;;;8.35;3.95;;;;;;;29.61;38.47;101264.66;5015135;28;20376;-77
2023/05/31 09:38:09;;;;;;;5.50;3.55;;;;;;;29.71;38.44;101252.81;5015858;28;20385;-79
2023/05/31 09:40:34;;;;;;;5.18;3.65;;;;;;;29.74;38.37;101242.16;5015908;28;20474;-77
2023/05/31 09:43:00;;;;;;;6.67;3.97;;;;;;;29.76;38.26;101246.53;5016519;28;20843;-76
2023/05/31 09:45:28;;;;;;;4.50;3.78;;;;;;;29.79;38.06;101240.53;5015071;28;20411;-77
2023/05/31 09:47:54;;;;;;;6.85;3.90;;;;;;;29.86;37.12;101238.25;5015854;28;20459;-78
2023/05/31 09:50:21;;;;;;;6.53;3.80;;;;;;;29.57;37.32;101239.03;5015738;28;20388;-80
2023/05/31 09:52:49;;;;;;;6.00;3.45;;;;;;;29.68;37.78;101221.44;5017257;28;20412;-78
2023/05/31 09:55:16;;;;;;;7.18;3.90;;;;;;;29.99;37.10;101225.84;5015519;28;20417;-78
2023/05/31 09:57:44;;;;;;;5.70;3.40;;;;;;;29.86;36.93;101227.34;5015667;28;20447;-78
2023/05/31 10:00:20;;;;;;;7.28;3.50;;;;;;;29.60;37.10;101224.78;5014477;28;20411;-80
2023/05/31 10:02:51;;;;;;;6.82;3.20;;;;;;;29.57;36.78;101217.16;5015310;28;20481;-79
2023/05/31 10:05:17;;;;;;;6.77;3.60;;;;;;;29.88;37.01;101215.00;5014845;28;20379;-79
2023/05/31 10:07:46;;;;;;;5.18;3.75;;;;;;;30.17;36.68;101205.97;5016707;28;20415;-78
2023/05/31 10:10:12;;;;;;;5.88;3.50;;;;;;;30.00;36.70;101200.94;5015141;28;20467;-78
2023/05/31 10:12:58;;;;;;;6.82;3.38;;;;;;;29.91;36.92;101203.50;5016568;28;20443;-79
2023/05/31 10:15:25;;;;;;;3.75;3.15;;;;;;;29.96;36.63;101212.75;5015696;28;20439;-78
2023/05/31 10:18:16;;;;;;;4.10;3.15;;;;;;;29.97;36.66;101212.47;5016302;28;20430;-79
2023/05/31 10:20:47;;;;;;;5.37;3.50;;;;;;;29.95;36.41;101198.28;5015919;28;20387;-77
2023/05/31 10:23:25;;;;;;;6.38;3.60;;;;;;;30.11;36.25;101199.72;5016709;28;20380;-80
2023/05/31 10:25:59;;;;;;;7.93;3.40;;;;;;;29.98;36.40;101199.59;5015433;28;20391;-77
2023/05/31 10:28:28;;;;;;;3.65;3.30;;;;;;;29.89;35.54;101202.97;5016604;28;20475;-80
2023/05/31 10:30:54;;;;;;;7.15;3.17;;;;;;;29.80;35.61;101206.59;5015009;28;20376;-78
2023/05/31 10:33:20;;;;;;;3.50;3.03;;;;;;;29.80;35.95;101201.13;5015161;28;20411;-76
2023/05/31 10:35:46;;;;;;;4.82;3.10;;;;;;;29.81;36.19;101198.13;5015499;28;20380;-78
2023/05/31 10:38:13;;;;;;;6.10;3.50;;;;;;;29.74;36.23;101203.91;5016165;28;20372;-79
2023/05/31 10:41:05;;;;;;;5.63;3.50;;;;;;;29.72;35.53;101183.44;5030298;28;20923;-79
2023/05/31 10:43:38;;;;;;;8.73;3.30;;;;;;;29.85;35.32;101179.22;5002533;28;20403;-77
2023/05/31 10:46:15;;;;;;;6.00;3.38;;;;;;;30.04;34.97;101184.78;5013930;28;20884;-76
2023/05/31 10:48:55;;;;;;;4.90;3.20;;;;;;;29.75;35.17;101180.16;5015008;28;20458;-80
2023/05/31 10:51:46;;;;;;;5.13;3.20;;;;;;;29.72;35.54;101167.84;5015809;28;20380;-81
2023/05/31 10:54:20;;;;;;;5.72;3.30;;;;;;;29.93;35.66;101173.16;5016220;28;20504;-83
2023/05/31 10:56:55;;;;;;;5.47;3.20;;;;;;;29.86;34.85;101165.28;5016122;28;20383;-80
2023/05/31 10:59:22;;;;;;;4.70;3.40;;;;;;;29.85;34.95;101176.50;5011375;28;20395;-81
2023/05/31 11:01:48;;;;;;;7.37;3.47;;;;;;;29.95;34.51;101162.72;5014812;28;20435;-79
2023/05/31 11:04:24;;;;;;;5.85;3.25;;;;;;;29.96;34.77;101171.75;5012397;28;20401;-80
2023/05/31 11:06:55;;;;;;;7.15;3.40;;;;;;;29.99;35.04;101174.72;5014230;28;20467;-78
2023/05/31 11:09:21;;;;;;;7.30;3.58;;;;;;;30.09;34.66;101168.34;5013726;28;20384;-76
2023/05/31 11:11:50;;;;;;;5.88;3.38;;;;;;;30.06;34.81;101166.16;5014026;28;20920;-77
2023/05/31 11:14:15;;;;;;;6.15;3.65;;;;;;;29.83;34.84;101165.03;5013987;28;20415;-81
2023/05/31 11:16:45;;;;;;;4.63;3.40;;;;;;;29.82;35.13;101163.41;5015709;28;20392;-79
2023/05/31 11:19:17;;;;;;;6.55;3.60;;;;;;;29.95;34.80;101165.47;5014742;28;20380;-78
2023/05/31 11:21:57;;;;;;;7.28;3.85;;;;;;;30.04;34.40;101158.25;5014859;28;20380;-78